createdAt,value
2017-10-27T00:00:53.501Z,94.90
2017-10-27T00:05:54.593Z,94.90
2017-10-27T00:10:56.430Z,95.00
2017-10-27T00:15:57.521Z,94.90
2017-10-27T00:20:58.611Z,94.50
2017-10-27T00:25:59.792Z,94.50
2017-10-27T00:31:00.928Z,94.60
2017-10-27T00:36:02.021Z,95.10
2017-10-27T00:41:03.132Z,95.10
2017-10-27T00:46:04.979Z,95.00
2017-10-27T00:51:06.098Z,95.00
2017-10-27T00:56:07.216Z,95.00
2017-10-27T01:01:08.373Z,94.90
2017-10-27T01:06:09.476Z,95.20
2017-10-27T01:11:10.640Z,94.90
2017-10-27T01:16:11.772Z,95.00
2017-10-27T01:21:13.633Z,95.00
2017-10-27T01:26:14.870Z,95.00
2017-10-27T01:31:15.987Z,94.60
2017-10-27T01:36:17.097Z,95.00
2017-10-27T01:41:18.205Z,94.60
2017-10-27T01:46:19.323Z,94.60
2017-10-27T01:51:20.462Z,94.60
2017-10-27T01:56:21.605Z,94.60
2017-10-27T02:01:22.791Z,95.00
2017-10-27T02:06:23.886Z,95.00
2017-10-27T02:11:25.765Z,95.00
2017-10-27T02:16:27.607Z,95.00
2017-10-27T02:21:28.701Z,95.00
2017-10-27T02:26:30.555Z,94.60
2017-10-27T02:31:31.622Z,94.60
2017-10-27T02:36:32.681Z,95.00
2017-10-27T02:41:33.766Z,95.00
2017-10-27T02:46:34.870Z,94.40
2017-10-27T02:51:35.956Z,95.00
2017-10-27T02:56:37.030Z,95.00
2017-10-27T03:01:38.847Z,94.60
2017-10-27T03:06:39.911Z,94.60
2017-10-27T03:11:40.998Z,94.60
2017-10-27T03:16:42.082Z,94.70
2017-10-27T03:21:43.930Z,94.60
2017-10-27T03:26:45.033Z,94.60
2017-10-27T03:31:46.113Z,95.30
2017-10-27T03:36:47.199Z,94.90
2017-10-27T03:41:48.285Z,94.80
2017-10-27T03:46:50.122Z,94.90
2017-10-27T03:51:51.227Z,94.90
2017-10-27T03:56:53.030Z,94.80
2017-10-27T04:01:54.114Z,94.80
2017-10-27T04:06:55.211Z,94.80
2017-10-27T04:11:57.027Z,94.80
2017-10-27T04:16:58.122Z,94.80
2017-10-27T04:22:06.160Z,94.90
2017-10-27T04:27:07.230Z,94.90
2017-10-27T04:32:09.072Z,94.80
2017-10-27T04:37:10.165Z,94.80
2017-10-27T04:42:11.986Z,94.70
2017-10-27T04:47:13.301Z,94.70
2017-10-27T04:52:15.133Z,94.50
2017-10-27T04:57:16.204Z,94.50
2017-10-27T05:02:17.287Z,94.70
2017-10-27T05:07:19.103Z,95.20
2017-10-27T05:12:20.266Z,95.20
2017-10-27T05:17:27.469Z,94.90
2017-10-27T05:22:34.565Z,94.20
2017-10-27T05:27:35.641Z,92.70
2017-10-27T05:32:36.709Z,91.50
2017-10-27T05:37:37.785Z,90.10
2017-10-27T05:42:38.856Z,88.00
2017-10-27T05:47:39.978Z,87.10
2017-10-27T05:52:41.033Z,86.30
2017-10-27T05:57:42.175Z,85.00
2017-10-27T06:02:43.254Z,84.20
2017-10-27T06:07:44.358Z,83.80
2017-10-27T06:12:45.477Z,83.20
2017-10-27T06:17:46.635Z,82.00
2017-10-27T06:22:47.691Z,81.10
2017-10-27T06:27:48.767Z,80.50
2017-10-27T06:32:49.823Z,81.00
2017-10-27T06:37:50.886Z,84.00
2017-10-27T06:42:51.953Z,86.90
2017-10-27T06:47:53.161Z,88.10
2017-10-27T06:52:54.241Z,89.00
2017-10-27T06:57:55.311Z,86.70
2017-10-27T07:02:56.405Z,88.60
2017-10-27T07:07:58.247Z,90.60
2017-10-27T07:12:59.365Z,90.50
2017-10-27T07:18:00.434Z,91.30
2017-10-27T07:23:01.560Z,90.50
2017-10-27T07:28:03.433Z,90.80
2017-10-27T07:33:05.301Z,90.60
2017-10-27T07:38:06.506Z,90.60
2017-10-27T07:43:07.634Z,91.10
2017-10-27T07:48:09.465Z,91.60
2017-10-27T07:53:10.552Z,91.60
2017-10-27T07:58:11.623Z,91.80
2017-10-27T08:03:13.499Z,92.00
2017-10-27T08:08:15.360Z,92.10
2017-10-27T08:13:16.430Z,92.10
2017-10-27T08:18:17.589Z,92.50
2017-10-27T08:23:18.658Z,92.30
2017-10-27T08:28:20.482Z,91.50
2017-10-27T08:33:21.586Z,91.50
2017-10-27T08:38:22.667Z,90.40
2017-10-27T08:43:23.736Z,91.40
2017-10-27T08:48:24.899Z,90.90
2017-10-27T08:53:25.999Z,91.10
2017-10-27T08:58:27.116Z,90.00
2017-10-27T09:03:28.207Z,90.70
2017-10-27T09:08:29.293Z,90.00
2017-10-27T09:13:30.388Z,88.60
2017-10-27T09:18:31.486Z,87.30
2017-10-27T09:23:32.610Z,88.60
2017-10-27T09:28:33.697Z,89.50
2017-10-27T09:33:34.817Z,88.30
2017-10-27T09:38:35.913Z,89.00
2017-10-27T09:43:36.990Z,89.80
2017-10-27T09:48:38.789Z,87.60
2017-10-27T09:53:39.909Z,87.50
2017-10-27T09:58:41.012Z,83.10
2017-10-27T10:03:42.821Z,72.80
2017-10-27T10:08:43.884Z,72.90
2017-10-27T10:13:45.009Z,72.50
2017-10-27T10:18:46.841Z,69.30
2017-10-27T10:23:47.938Z,69.40
2017-10-27T10:28:48.986Z,68.80
2017-10-27T10:33:50.058Z,65.70
2017-10-27T10:38:51.887Z,59.50
2017-10-27T10:43:52.990Z,59.40
2017-10-27T10:48:54.825Z,59.10
2017-10-27T10:53:55.904Z,59.00
2017-10-27T10:58:57.011Z,56.40
2017-10-27T11:03:58.066Z,56.60
2017-10-27T11:08:59.133Z,56.30
2017-10-27T11:14:00.253Z,53.30
2017-10-27T11:19:01.361Z,52.70
2017-10-27T11:24:02.456Z,53.70
2017-10-27T11:29:03.542Z,51.60
2017-10-27T11:34:05.374Z,50.90
2017-10-27T11:39:06.477Z,50.90
2017-10-27T11:44:08.293Z,45.30
2017-10-27T11:49:09.389Z,45.30
2017-10-27T11:54:10.533Z,45.80
2017-10-27T11:59:12.348Z,47.50
2017-10-27T12:04:14.181Z,46.50
2017-10-27T12:09:15.223Z,46.40
2017-10-27T12:14:16.338Z,47.10
2017-10-27T12:19:18.226Z,51.90
2017-10-27T12:24:20.078Z,52.90
2017-10-27T12:29:21.159Z,52.80
2017-10-27T12:34:22.965Z,50.00
2017-10-27T12:39:24.065Z,50.00
2017-10-27T12:44:25.145Z,49.00
2017-10-27T12:49:27.179Z,50.90
2017-10-27T12:54:28.267Z,50.90
2017-10-27T12:59:29.361Z,51.40
2017-10-27T13:04:31.248Z,54.50
2017-10-27T13:09:32.325Z,54.60
2017-10-27T13:14:33.390Z,51.10
2017-10-27T13:19:34.478Z,51.50
2017-10-27T13:24:35.553Z,49.50
2017-10-27T13:29:37.434Z,58.80
2017-10-27T13:34:39.269Z,60.90
2017-10-27T13:39:40.338Z,61.10
2017-10-27T13:44:41.420Z,62.50
2017-10-27T13:49:42.601Z,58.80
2017-10-27T13:54:44.469Z,57.00
2017-10-27T13:59:46.381Z,56.70
2017-10-27T14:04:47.618Z,56.80
2017-10-27T14:09:49.500Z,54.50
2017-10-27T14:14:50.811Z,54.50
2017-10-27T14:19:51.885Z,51.20
2017-10-27T14:24:53.126Z,50.70
2017-10-27T14:29:54.212Z,50.10
2017-10-27T14:34:55.324Z,50.00
2017-10-27T14:39:56.401Z,50.60
2017-10-27T14:44:57.506Z,49.70
2017-10-27T14:49:59.578Z,49.50
2017-10-27T14:55:00.640Z,49.40
2017-10-27T15:00:02.456Z,48.20
2017-10-27T15:05:03.574Z,48.20
2017-10-27T15:10:05.401Z,47.80
2017-10-27T15:15:06.534Z,47.80
2017-10-27T15:20:07.621Z,46.40
2017-10-27T15:25:08.783Z,47.10
2017-10-27T15:30:09.859Z,48.10
2017-10-27T15:35:11.057Z,49.20
2017-10-27T15:40:12.916Z,54.20
2017-10-27T15:45:14.015Z,54.10
2017-10-27T15:50:15.120Z,57.30
2017-10-27T15:55:16.181Z,58.80
2017-10-27T16:00:17.358Z,61.20
2017-10-27T16:05:18.451Z,63.50
2017-10-27T16:10:19.517Z,65.90
2017-10-27T16:15:20.811Z,64.70
2017-10-27T16:20:21.964Z,64.50
2017-10-27T16:25:23.333Z,62.30
2017-10-27T16:30:24.558Z,61.30
2017-10-27T16:35:43.611Z,59.90
2017-10-27T16:40:56.482Z,59.70
2017-10-27T16:51:33.745Z,62.70
2017-10-27T16:56:35.082Z,62.70
2017-10-27T17:01:43.970Z,64.20
2017-10-27T17:06:45.211Z,64.80
2017-10-27T17:11:47.170Z,63.60
2017-10-27T17:16:48.324Z,63.50
2017-10-27T17:21:50.217Z,61.30
2017-10-27T17:26:51.430Z,61.30
2017-10-27T17:31:54.649Z,61.80
2017-10-27T17:36:55.782Z,62.60
2017-10-27T17:42:03.290Z,63.00
2017-10-27T17:47:10.352Z,62.20
2017-10-27T17:52:11.529Z,62.60
2017-10-27T17:57:25.519Z,62.90
2017-10-27T18:02:39.266Z,62.90
2017-10-27T18:07:40.429Z,62.60
2017-10-27T18:12:42.362Z,62.60
2017-10-27T18:17:43.581Z,62.20
2017-10-27T18:22:48.120Z,62.60
2017-10-27T18:27:49.581Z,62.60
2017-10-27T18:33:06.312Z,62.60
2017-10-27T18:38:10.487Z,62.80
2017-10-27T18:43:11.662Z,62.80
2017-10-27T18:48:27.036Z,62.90
2017-10-27T18:53:35.873Z,63.10
2017-10-27T18:58:37.053Z,63.20
2017-10-27T19:03:46.838Z,62.60
2017-10-27T19:08:48.398Z,62.60
2017-10-27T19:13:51.651Z,62.70
2017-10-27T19:19:03.250Z,62.60
2017-10-27T19:24:06.621Z,62.90
2017-10-27T19:29:16.536Z,61.90
2017-10-27T19:34:24.481Z,62.00
2017-10-27T19:45:03.901Z,60.90
2017-10-27T19:55:47.046Z,60.90
2017-10-27T20:00:54.008Z,61.30
2017-10-27T20:06:01.667Z,61.30
2017-10-27T20:11:06.327Z,60.30
2017-10-27T20:16:09.707Z,61.40
2017-10-27T20:21:10.958Z,61.50
2017-10-27T20:26:12.151Z,61.70
2017-10-27T20:31:16.805Z,61.70
2017-10-27T20:36:26.697Z,61.70
2017-10-27T20:41:31.950Z,61.90
2017-10-27T20:46:35.185Z,62.40
2017-10-27T20:51:54.768Z,62.30
2017-10-27T20:56:57.842Z,62.60
2017-10-27T21:02:04.249Z,62.00
2017-10-27T21:07:08.931Z,62.60
2017-10-27T21:12:10.227Z,62.80
2017-10-27T21:17:11.334Z,62.60
2017-10-27T21:22:13.175Z,62.30
2017-10-27T21:27:14.990Z,62.60
2017-10-27T21:32:16.826Z,62.60
2017-10-27T21:37:17.914Z,62.60
2017-10-27T21:42:19.745Z,62.60
2017-10-27T21:47:20.808Z,62.60
2017-10-27T21:52:28.957Z,62.60
2017-10-27T21:57:30.789Z,63.00
2017-10-27T22:02:31.849Z,62.80
2017-10-27T22:07:32.917Z,62.60
2017-10-27T22:12:33.998Z,62.40
2017-10-27T22:17:35.066Z,63.00
2017-10-27T22:22:36.147Z,63.00
2017-10-27T22:27:38.021Z,63.30
2017-10-27T22:32:39.816Z,63.30
2017-10-27T22:37:40.881Z,63.20
2017-10-27T22:42:41.973Z,63.70
2017-10-27T22:47:43.040Z,63.80
2017-10-27T22:52:44.105Z,64.00
2017-10-27T22:57:45.177Z,64.30
2017-10-27T23:02:46.234Z,64.90
2017-10-27T23:07:53.558Z,64.80
2017-10-27T23:12:54.617Z,65.10
2017-10-27T23:17:56.413Z,65.40
2017-10-27T23:22:57.497Z,65.40
2017-10-27T23:27:58.546Z,65.70
2017-10-27T23:32:59.597Z,65.80
2017-10-27T23:38:00.677Z,66.10
2017-10-27T23:43:01.765Z,66.40
2017-10-27T23:48:02.823Z,66.70
2017-10-27T23:53:03.906Z,66.70
2017-10-27T23:58:05.682Z,66.50
